sensor_id;sensor_type;location;lat;lon;timestamp;pressure;altitude;pressure_sealevel;temperature;humidity
72438;BME280;60444;43.534;-5.674;2023-03-08T00:01:47;100285.34;;;13.79;100.00
72438;BME280;60444;43.534;-5.674;2023-03-08T00:04:13;100263.78;;;13.63;100.00
72438;BME280;60444;43.534;-5.674;2023-03-08T00:06:38;100283.94;;;13.73;100.00
72438;BME280;60444;43.534;-5.674;2023-03-08T00:09:04;100261.72;;;13.67;100.00
72438;BME280;60444;43.534;-5.674;2023-03-08T00:11:30;100268.81;;;13.69;100.00
72438;BME280;60444;43.534;-5.674;2023-03-08T00:13:55;100252.06;;;13.63;100.00
72438;BME280;60444;43.534;-5.674;2023-03-08T00:16:23;100257.28;;;13.66;100.00
72438;BME280;60444;43.534;-5.674;2023-03-08T00:18:49;100258.28;;;13.65;100.00
72438;BME280;60444;43.534;-5.674;2023-03-08T00:21:16;100253.69;;;13.65;100.00
72438;BME280;60444;43.534;-5.674;2023-03-08T00:23:43;100240.31;;;13.62;100.00
72438;BME280;60444;43.534;-5.674;2023-03-08T00:26:10;100235.31;;;13.56;100.00
72438;BME280;60444;43.534;-5.674;2023-03-08T00:28:36;100217.81;;;13.47;100.00
72438;BME280;60444;43.534;-5.674;2023-03-08T00:31:05;100226.50;;;13.52;100.00
72438;BME280;60444;43.534;-5.674;2023-03-08T00:33:31;100231.09;;;13.52;100.00
72438;BME280;60444;43.534;-5.674;2023-03-08T00:36:01;100218.47;;;13.38;100.00
72438;BME280;60444;43.534;-5.674;2023-03-08T00:38:27;100220.22;;;13.52;100.00
72438;BME280;60444;43.534;-5.674;2023-03-08T00:40:53;100238.13;;;13.54;100.00
72438;BME280;60444;43.534;-5.674;2023-03-08T00:43:19;100222.06;;;13.51;100.00
72438;BME280;60444;43.534;-5.674;2023-03-08T00:45:45;100229.03;;;13.56;100.00
72438;BME280;60444;43.534;-5.674;2023-03-08T00:48:11;100220.13;;;13.53;100.00
72438;BME280;60444;43.534;-5.674;2023-03-08T00:50:37;100217.50;;;13.52;100.00
72438;BME280;60444;43.534;-5.674;2023-03-08T00:53:02;100219.53;;;13.48;100.00
72438;BME280;60444;43.534;-5.674;2023-03-08T00:55:28;100221.84;;;13.54;100.00
72438;BME280;60444;43.534;-5.674;2023-03-08T00:57:53;100211.09;;;13.53;100.00
72438;BME280;60444;43.534;-5.674;2023-03-08T01:00:19;100230.31;;;13.50;100.00
72438;BME280;60444;43.534;-5.674;2023-03-08T01:02:44;100217.38;;;13.41;100.00
72438;BME280;60444;43.534;-5.674;2023-03-08T01:05:10;100221.53;;;13.46;100.00
72438;BME280;60444;43.534;-5.674;2023-03-08T01:07:35;100218.88;;;13.45;100.00
72438;BME280;60444;43.534;-5.674;2023-03-08T01:10:01;100218.16;;;13.43;100.00
72438;BME280;60444;43.534;-5.674;2023-03-08T01:12:31;100201.84;;;13.43;100.00
72438;BME280;60444;43.534;-5.674;2023-03-08T01:14:57;100197.50;;;13.40;100.00
72438;BME280;60444;43.534;-5.674;2023-03-08T01:17:23;100180.00;;;13.32;100.00
72438;BME280;60444;43.534;-5.674;2023-03-08T01:19:48;100188.69;;;13.37;100.00
72438;BME280;60444;43.534;-5.674;2023-03-08T01:22:14;100186.28;;;13.32;100.00
72438;BME280;60444;43.534;-5.674;2023-03-08T01:24:46;100196.84;;;13.37;100.00
72438;BME280;60444;43.534;-5.674;2023-03-08T01:27:12;100193.13;;;13.38;100.00
72438;BME280;60444;43.534;-5.674;2023-03-08T01:29:39;100185.09;;;13.36;100.00
72438;BME280;60444;43.534;-5.674;2023-03-08T01:32:04;100145.75;;;13.17;100.00
72438;BME280;60444;43.534;-5.674;2023-03-08T01:34:30;100158.91;;;13.23;100.00
72438;BME280;60444;43.534;-5.674;2023-03-08T01:36:56;100152.38;;;13.25;100.00
72438;BME280;60444;43.534;-5.674;2023-03-08T01:39:21;100139.91;;;13.23;100.00
72438;BME280;60444;43.534;-5.674;2023-03-08T01:41:46;100164.25;;;13.24;100.00
72438;BME280;60444;43.534;-5.674;2023-03-08T01:44:17;100160.00;;;13.33;100.00
72438;BME280;60444;43.534;-5.674;2023-03-08T01:46:43;100171.41;;;13.38;100.00
72438;BME280;60444;43.534;-5.674;2023-03-08T01:49:25;100148.47;;;13.29;100.00
72438;BME280;60444;43.534;-5.674;2023-03-08T01:52:07;100124.56;;;13.22;100.00
72438;BME280;60444;43.534;-5.674;2023-03-08T01:54:46;100148.72;;;13.39;100.00
72438;BME280;60444;43.534;-5.674;2023-03-08T01:57:19;100146.41;;;13.33;100.00
72438;BME280;60444;43.534;-5.674;2023-03-08T01:59:47;100145.22;;;13.37;100.00
72438;BME280;60444;43.534;-5.674;2023-03-08T02:02:15;100146.94;;;13.38;100.00
72438;BME280;60444;43.534;-5.674;2023-03-08T02:04:42;100134.47;;;13.35;100.00
72438;BME280;60444;43.534;-5.674;2023-03-08T02:07:08;100105.56;;;13.22;100.00
72438;BME280;60444;43.534;-5.674;2023-03-08T02:09:33;100127.81;;;13.39;100.00
72438;BME280;60444;43.534;-5.674;2023-03-08T02:12:02;100091.56;;;13.28;100.00
72438;BME280;60444;43.534;-5.674;2023-03-08T02:14:29;100090.69;;;13.27;100.00
72438;BME280;60444;43.534;-5.674;2023-03-08T02:16:55;100086.44;;;13.36;100.00
72438;BME280;60444;43.534;-5.674;2023-03-08T02:19:31;100097.94;;;13.39;100.00
72438;BME280;60444;43.534;-5.674;2023-03-08T02:22:15;100078.28;;;13.36;100.00
72438;BME280;60444;43.534;-5.674;2023-03-08T02:24:42;100082.97;;;13.34;100.00
72438;BME280;60444;43.534;-5.674;2023-03-08T02:27:18;100082.88;;;13.35;100.00
72438;BME280;60444;43.534;-5.674;2023-03-08T02:29:44;100074.84;;;13.34;100.00
72438;BME280;60444;43.534;-5.674;2023-03-08T02:32:10;100085.34;;;13.38;100.00
72438;BME280;60444;43.534;-5.674;2023-03-08T02:34:35;100072.13;;;13.34;100.00
72438;BME280;60444;43.534;-5.674;2023-03-08T02:37:01;100073.72;;;13.36;100.00
72438;BME280;60444;43.534;-5.674;2023-03-08T02:39:27;100052.78;;;13.26;100.00
72438;BME280;60444;43.534;-5.674;2023-03-08T02:41:52;100061.56;;;13.29;100.00
72438;BME280;60444;43.534;-5.674;2023-03-08T02:44:18;100053.13;;;13.21;100.00
72438;BME280;60444;43.534;-5.674;2023-03-08T02:46:43;100066.56;;;13.35;100.00
72438;BME280;60444;43.534;-5.674;2023-03-08T02:49:09;100066.34;;;13.38;100.00
72438;BME280;60444;43.534;-5.674;2023-03-08T02:51:34;100049.81;;;13.29;100.00
72438;BME280;60444;43.534;-5.674;2023-03-08T02:54:00;100056.78;;;13.33;100.00
72438;BME280;60444;43.534;-5.674;2023-03-08T02:56:25;100058.31;;;13.37;100.00
72438;BME280;60444;43.534;-5.674;2023-03-08T02:58:53;100071.78;;;13.38;100.00
72438;BME280;60444;43.534;-5.674;2023-03-08T03:01:19;100044.63;;;13.26;100.00
72438;BME280;60444;43.534;-5.674;2023-03-08T03:03:44;100056.03;;;13.31;100.00
72438;BME280;60444;43.534;-5.674;2023-03-08T03:06:19;100053.63;;;13.39;100.00
72438;BME280;60444;43.534;-5.674;2023-03-08T03:08:45;100056.66;;;13.34;100.00
72438;BME280;60444;43.534;-5.674;2023-03-08T03:11:19;100040.88;;;13.39;100.00
72438;BME280;60444;43.534;-5.674;2023-03-08T03:13:45;100000.94;;;13.29;100.00
72438;BME280;60444;43.534;-5.674;2023-03-08T03:16:15;100010.59;;;13.33;100.00
72438;BME280;60444;43.534;-5.674;2023-03-08T03:18:41;100023.50;;;13.42;100.00
72438;BME280;60444;43.534;-5.674;2023-03-08T03:21:10;99992.50;;;13.21;100.00
72438;BME280;60444;43.534;-5.674;2023-03-08T03:23:36;100028.94;;;13.42;100.00
72438;BME280;60444;43.534;-5.674;2023-03-08T03:26:09;100018.75;;;13.33;100.00
72438;BME280;60444;43.534;-5.674;2023-03-08T03:28:35;100036.97;;;13.43;100.00
72438;BME280;60444;43.534;-5.674;2023-03-08T03:31:01;100048.59;;;13.45;100.00
72438;BME280;60444;43.534;-5.674;2023-03-08T03:33:29;100044.16;;;13.44;100.00
72438;BME280;60444;43.534;-5.674;2023-03-08T03:35:54;100036.88;;;13.45;100.00
72438;BME280;60444;43.534;-5.674;2023-03-08T03:38:20;100031.53;;;13.43;100.00
72438;BME280;60444;43.534;-5.674;2023-03-08T03:40:45;100012.34;;;13.34;100.00
72438;BME280;60444;43.534;-5.674;2023-03-08T03:43:11;100027.44;;;13.38;100.00
72438;BME280;60444;43.534;-5.674;2023-03-08T03:45:36;100049.50;;;13.46;100.00
72438;BME280;60444;43.534;-5.674;2023-03-08T03:48:02;100035.56;;;13.38;100.00
72438;BME280;60444;43.534;-5.674;2023-03-08T03:50:27;100056.63;;;13.47;100.00
72438;BME280;60444;43.534;-5.674;2023-03-08T03:52:53;100076.41;;;13.49;100.00
72438;BME280;60444;43.534;-5.674;2023-03-08T03:55:18;100068.50;;;13.46;100.00
72438;BME280;60444;43.534;-5.674;2023-03-08T03:57:47;100040.38;;;13.34;100.00
72438;BME280;60444;43.534;-5.674;2023-03-08T04:00:13;100036.34;;;13.40;100.00
72438;BME280;60444;43.534;-5.674;2023-03-08T04:02:38;100051.44;;;13.44;100.00
72438;BME280;60444;43.534;-5.674;2023-03-08T04:05:04;100057.41;;;13.49;100.00
72438;BME280;60444;43.534;-5.674;2023-03-08T04:07:30;100032.53;;;13.42;100.00
72438;BME280;60444;43.534;-5.674;2023-03-08T04:09:55;100048.38;;;13.48;100.00
72438;BME280;60444;43.534;-5.674;2023-03-08T04:12:21;100044.81;;;13.48;100.00
72438;BME280;60444;43.534;-5.674;2023-03-08T04:14:46;100050.13;;;13.49;100.00
72438;BME280;60444;43.534;-5.674;2023-03-08T04:17:12;100037.41;;;13.50;100.00
72438;BME280;60444;43.534;-5.674;2023-03-08T04:19:37;100018.63;;;13.34;100.00
72438;BME280;60444;43.534;-5.674;2023-03-08T04:22:03;100054.81;;;13.47;100.00
72438;BME280;60444;43.534;-5.674;2023-03-08T04:24:28;100031.03;;;13.38;100.00
72438;BME280;60444;43.534;-5.674;2023-03-08T04:26:54;100051.31;;;13.45;100.00
72438;BME280;60444;43.534;-5.674;2023-03-08T04:29:19;100066.88;;;13.43;100.00
72438;BME280;60444;43.534;-5.674;2023-03-08T04:31:45;100050.38;;;13.34;100.00
72438;BME280;60444;43.534;-5.674;2023-03-08T04:34:10;100062.84;;;13.36;100.00
72438;BME280;60444;43.534;-5.674;2023-03-08T04:36:36;100043.63;;;13.27;100.00
72438;BME280;60444;43.534;-5.674;2023-03-08T04:39:02;100054.50;;;13.27;100.00
72438;BME280;60444;43.534;-5.674;2023-03-08T04:41:27;100048.75;;;13.19;100.00
72438;BME280;60444;43.534;-5.674;2023-03-08T04:43:57;100058.22;;;13.26;100.00
72438;BME280;60444;43.534;-5.674;2023-03-08T04:46:25;100045.50;;;13.26;100.00
72438;BME280;60444;43.534;-5.674;2023-03-08T04:48:51;100033.75;;;13.26;100.00
72438;BME280;60444;43.534;-5.674;2023-03-08T04:51:19;100027.44;;;13.25;100.00
72438;BME280;60444;43.534;-5.674;2023-03-08T04:53:44;100025.72;;;13.24;100.00
72438;BME280;60444;43.534;-5.674;2023-03-08T04:56:12;100028.44;;;13.24;100.00
72438;BME280;60444;43.534;-5.674;2023-03-08T04:58:38;100019.78;;;13.19;100.00
72438;BME280;60444;43.534;-5.674;2023-03-08T05:01:15;100032.47;;;13.19;100.00
72438;BME280;60444;43.534;-5.674;2023-03-08T05:03:41;100024.75;;;13.13;100.00
72438;BME280;60444;43.534;-5.674;2023-03-08T05:06:08;100028.13;;;13.16;100.00
72438;BME280;60444;43.534;-5.674;2023-03-08T05:08:34;100020.97;;;13.15;100.00
72438;BME280;60444;43.534;-5.674;2023-03-08T05:11:01;100024.00;;;13.11;100.00
72438;BME280;60444;43.534;-5.674;2023-03-08T05:13:29;100014.66;;;13.02;100.00
72438;BME280;60444;43.534;-5.674;2023-03-08T05:15:55;100018.91;;;13.06;100.00
72438;BME280;60444;43.534;-5.674;2023-03-08T05:18:20;99981.19;;;12.89;100.00
72438;BME280;60444;43.534;-5.674;2023-03-08T05:20:55;100002.25;;;12.98;100.00
72438;BME280;60444;43.534;-5.674;2023-03-08T05:23:22;100012.03;;;13.01;100.00
72438;BME280;60444;43.534;-5.674;2023-03-08T05:25:51;100016.72;;;12.99;100.00
72438;BME280;60444;43.534;-5.674;2023-03-08T05:28:16;100006.94;;;12.84;100.00
72438;BME280;60444;43.534;-5.674;2023-03-08T05:30:42;100009.88;;;12.81;100.00
72438;BME280;60444;43.534;-5.674;2023-03-08T05:33:07;100029.41;;;12.86;100.00
72438;BME280;60444;43.534;-5.674;2023-03-08T05:35:33;100030.06;;;12.89;100.00
72438;BME280;60444;43.534;-5.674;2023-03-08T05:37:58;100026.28;;;12.79;100.00
72438;BME280;60444;43.534;-5.674;2023-03-08T05:40:24;100036.69;;;12.85;100.00
72438;BME280;60444;43.534;-5.674;2023-03-08T05:42:49;100021.38;;;12.72;100.00
72438;BME280;60444;43.534;-5.674;2023-03-08T05:45:15;100035.19;;;12.81;100.00
72438;BME280;60444;43.534;-5.674;2023-03-08T05:47:40;100024.09;;;12.84;100.00
72438;BME280;60444;43.534;-5.674;2023-03-08T05:50:06;100025.09;;;12.83;100.00
72438;BME280;60444;43.534;-5.674;2023-03-08T05:52:32;100014.34;;;12.82;100.00
72438;BME280;60444;43.534;-5.674;2023-03-08T05:54:58;100019.31;;;12.75;100.00
72438;BME280;60444;43.534;-5.674;2023-03-08T05:57:23;100015.41;;;12.79;100.00
72438;BME280;60444;43.534;-5.674;2023-03-08T05:59:48;100003.47;;;12.82;100.00
72438;BME280;60444;43.534;-5.674;2023-03-08T06:02:14;100003.47;;;12.82;100.00
72438;BME280;60444;43.534;-5.674;2023-03-08T06:04:39;100009.22;;;12.77;100.00
72438;BME280;60444;43.534;-5.674;2023-03-08T06:07:05;99996.84;;;12.73;100.00
72438;BME280;60444;43.534;-5.674;2023-03-08T06:09:30;100008.34;;;12.77;100.00
72438;BME280;60444;43.534;-5.674;2023-03-08T06:11:56;99991.00;;;12.67;100.00
72438;BME280;60444;43.534;-5.674;2023-03-08T06:14:24;99975.13;;;12.61;100.00
72438;BME280;60444;43.534;-5.674;2023-03-08T06:16:49;99982.75;;;12.56;100.00
72438;BME280;60444;43.534;-5.674;2023-03-08T06:19:15;100004.03;;;12.62;100.00
72438;BME280;60444;43.534;-5.674;2023-03-08T06:21:40;99992.41;;;12.60;100.00
72438;BME280;60444;43.534;-5.674;2023-03-08T06:24:06;99996.72;;;12.62;100.00
72438;BME280;60444;43.534;-5.674;2023-03-08T06:26:32;100010.94;;;12.66;100.00
72438;BME280;60444;43.534;-5.674;2023-03-08T06:28:57;100018.53;;;12.61;100.00
72438;BME280;60444;43.534;-5.674;2023-03-08T06:31:23;100017.88;;;12.57;100.00
72438;BME280;60444;43.534;-5.674;2023-03-08T06:33:48;100028.50;;;12.60;100.00
72438;BME280;60444;43.534;-5.674;2023-03-08T06:36:16;100009.44;;;12.49;100.00
72438;BME280;60444;43.534;-5.674;2023-03-08T06:38:46;100037.34;;;12.64;100.00
72438;BME280;60444;43.534;-5.674;2023-03-08T06:41:13;100041.34;;;12.58;100.00
72438;BME280;60444;43.534;-5.674;2023-03-08T06:43:39;100055.88;;;12.57;100.00
72438;BME280;60444;43.534;-5.674;2023-03-08T06:46:06;100067.06;;;12.52;100.00
72438;BME280;60444;43.534;-5.674;2023-03-08T06:48:33;100044.44;;;12.39;100.00
72438;BME280;60444;43.534;-5.674;2023-03-08T06:50:58;100085.06;;;12.53;100.00
72438;BME280;60444;43.534;-5.674;2023-03-08T06:53:24;100067.91;;;12.53;100.00
72438;BME280;60444;43.534;-5.674;2023-03-08T06:55:50;100050.81;;;12.38;100.00
72438;BME280;60444;43.534;-5.674;2023-03-08T06:58:15;100066.38;;;12.36;100.00
72438;BME280;60444;43.534;-5.674;2023-03-08T07:00:42;100108.59;;;12.53;100.00
72438;BME280;60444;43.534;-5.674;2023-03-08T07:03:10;100089.38;;;12.43;100.00
72438;BME280;60444;43.534;-5.674;2023-03-08T07:05:35;100082.09;;;12.44;100.00
72438;BME280;60444;43.534;-5.674;2023-03-08T07:08:01;100071.78;;;12.36;100.00
72438;BME280;60444;43.534;-5.674;2023-03-08T07:10:27;100082.00;;;12.45;100.00
72438;BME280;60444;43.534;-5.674;2023-03-08T07:12:52;100088.94;;;12.49;100.00
72438;BME280;60444;43.534;-5.674;2023-03-08T07:15:22;100073.66;;;12.48;100.00
72438;BME280;60444;43.534;-5.674;2023-03-08T07:17:50;100086.22;;;12.49;100.00
72438;BME280;60444;43.534;-5.674;2023-03-08T07:20:18;100094.69;;;12.45;100.00
72438;BME280;60444;43.534;-5.674;2023-03-08T07:22:44;100101.22;;;12.55;100.00
72438;BME280;60444;43.534;-5.674;2023-03-08T07:25:12;100100.38;;;12.55;100.00
72438;BME280;60444;43.534;-5.674;2023-03-08T07:27:38;100082.31;;;12.41;100.00
72438;BME280;60444;43.534;-5.674;2023-03-08T07:30:04;100088.50;;;12.43;100.00
72438;BME280;60444;43.534;-5.674;2023-03-08T07:32:30;100102.72;;;12.46;100.00
72438;BME280;60444;43.534;-5.674;2023-03-08T07:34:55;100127.28;;;12.58;100.00
72438;BME280;60444;43.534;-5.674;2023-03-08T07:37:21;100143.34;;;12.61;100.00
72438;BME280;60444;43.534;-5.674;2023-03-08T07:39:47;100128.59;;;12.65;100.00
72438;BME280;60444;43.534;-5.674;2023-03-08T07:42:12;100104.03;;;12.53;100.00
72438;BME280;60444;43.534;-5.674;2023-03-08T07:44:38;100109.19;;;12.71;100.00
72438;BME280;60444;43.534;-5.674;2023-03-08T07:47:04;100115.16;;;12.76;100.00
72438;BME280;60444;43.534;-5.674;2023-03-08T07:49:30;100127.56;;;12.80;100.00
72438;BME280;60444;43.534;-5.674;2023-03-08T07:51:56;100132.75;;;12.83;100.00
72438;BME280;60444;43.534;-5.674;2023-03-08T07:54:21;100125.63;;;12.82;100.00
72438;BME280;60444;43.534;-5.674;2023-03-08T07:56:47;100149.28;;;12.92;100.00
72438;BME280;60444;43.534;-5.674;2023-03-08T07:59:13;100136.25;;;12.85;100.00
72438;BME280;60444;43.534;-5.674;2023-03-08T08:01:38;100156.16;;;12.98;100.00
72438;BME280;60444;43.534;-5.674;2023-03-08T08:04:04;100126.03;;;12.88;100.00
72438;BME280;60444;43.534;-5.674;2023-03-08T08:06:34;100168.66;;;13.13;100.00
72438;BME280;60444;43.534;-5.674;2023-03-08T08:09:00;100184.78;;;13.16;100.00
72438;BME280;60444;43.534;-5.674;2023-03-08T08:11:26;100175.28;;;13.09;100.00
72438;BME280;60444;43.534;-5.674;2023-03-08T08:13:52;100198.88;;;13.21;100.00
72438;BME280;60444;43.534;-5.674;2023-03-08T08:16:18;100206.59;;;13.27;100.00
72438;BME280;60444;43.534;-5.674;2023-03-08T08:18:43;100216.09;;;13.34;100.00
72438;BME280;60444;43.534;-5.674;2023-03-08T08:21:11;100196.50;;;13.41;100.00
72438;BME280;60444;43.534;-5.674;2023-03-08T08:23:37;100219.88;;;13.69;100.00
72438;BME280;60444;43.534;-5.674;2023-03-08T08:26:15;100236.69;;;14.12;100.00
72438;BME280;60444;43.534;-5.674;2023-03-08T08:28:43;100243.34;;;14.08;100.00
72438;BME280;60444;43.534;-5.674;2023-03-08T08:31:11;100241.25;;;14.24;100.00
72438;BME280;60444;43.534;-5.674;2023-03-08T08:33:37;100213.84;;;14.27;100.00
72438;BME280;60444;43.534;-5.674;2023-03-08T08:36:05;100216.44;;;14.28;100.00
72438;BME280;60444;43.534;-5.674;2023-03-08T08:38:31;100199.47;;;14.25;100.00
72438;BME280;60444;43.534;-5.674;2023-03-08T08:41:01;100235.56;;;14.39;100.00
72438;BME280;60444;43.534;-5.674;2023-03-08T08:43:27;100224.38;;;14.44;100.00
72438;BME280;60444;43.534;-5.674;2023-03-08T08:45:55;100224.66;;;14.52;100.00
72438;BME280;60444;43.534;-5.674;2023-03-08T08:48:21;100202.31;;;14.60;100.00
72438;BME280;60444;43.534;-5.674;2023-03-08T08:50:47;100195.66;;;14.64;100.00
72438;BME280;60444;43.534;-5.674;2023-03-08T08:53:13;100195.81;;;14.73;100.00
72438;BME280;60444;43.534;-5.674;2023-03-08T08:55:39;100195.72;;;14.75;100.00
72438;BME280;60444;43.534;-5.674;2023-03-08T08:58:07;100188.81;;;14.82;100.00
72438;BME280;60444;43.534;-5.674;2023-03-08T09:00:33;100174.22;;;14.83;100.00
72438;BME280;60444;43.534;-5.674;2023-03-08T09:03:00;100188.13;;;14.91;100.00
72438;BME280;60444;43.534;-5.674;2023-03-08T09:05:26;100189.59;;;14.95;100.00
72438;BME280;60444;43.534;-5.674;2023-03-08T09:07:53;100178.94;;;14.92;100.00
72438;BME280;60444;43.534;-5.674;2023-03-08T09:10:19;100180.97;;;15.01;100.00
72438;BME280;60444;43.534;-5.674;2023-03-08T09:12:45;100180.97;;;15.01;100.00
72438;BME280;60444;43.534;-5.674;2023-03-08T09:15:11;100176.44;;;15.12;100.00
72438;BME280;60444;43.534;-5.674;2023-03-08T09:17:37;100183.47;;;15.15;100.00
72438;BME280;60444;43.534;-5.674;2023-03-08T09:20:04;100162.66;;;15.03;100.00
72438;BME280;60444;43.534;-5.674;2023-03-08T09:22:38;100155.72;;;15.10;100.00
72438;BME280;60444;43.534;-5.674;2023-03-08T09:25:05;100151.06;;;15.23;100.00
72438;BME280;60444;43.534;-5.674;2023-03-08T09:27:31;100140.28;;;15.21;100.00
72438;BME280;60444;43.534;-5.674;2023-03-08T09:29:57;100141.91;;;15.24;100.00
72438;BME280;60444;43.534;-5.674;2023-03-08T09:32:23;100116.38;;;15.14;100.00
72438;BME280;60444;43.534;-5.674;2023-03-08T09:34:52;100121.84;;;15.25;100.00
72438;BME280;60444;43.534;-5.674;2023-03-08T09:37:20;100114.44;;;15.27;100.00
72438;BME280;60444;43.534;-5.674;2023-03-08T09:39:50;100101.53;;;15.18;100.00
72438;BME280;60444;43.534;-5.674;2023-03-08T09:42:19;100112.19;;;15.32;100.00
72438;BME280;60444;43.534;-5.674;2023-03-08T09:49:53;100095.38;;;15.49;100.00
72438;BME280;60444;43.534;-5.674;2023-03-08T09:52:31;100088.69;;;15.64;100.00
72438;BME280;60444;43.534;-5.674;2023-03-08T09:54:59;100066.63;;;15.67;100.00
72438;BME280;60444;43.534;-5.674;2023-03-08T09:57:30;100073.69;;;15.92;100.00
72438;BME280;60444;43.534;-5.674;2023-03-08T10:00:04;100068.81;;;16.06;100.00
72438;BME280;60444;43.534;-5.674;2023-03-08T10:05:44;100089.56;;;16.29;100.00
72438;BME280;60444;43.534;-5.674;2023-03-08T10:08:16;100078.25;;;16.34;100.00
72438;BME280;60444;43.534;-5.674;2023-03-08T10:10:50;100097.84;;;16.50;100.00
72438;BME280;60444;43.534;-5.674;2023-03-08T10:21:14;100104.03;;;16.84;100.00
72438;BME280;60444;43.534;-5.674;2023-03-08T10:23:44;100109.44;;;16.95;100.00
72438;BME280;60444;43.534;-5.674;2023-03-08T10:26:11;100108.66;;;17.04;100.00
72438;BME280;60444;43.534;-5.674;2023-03-08T10:28:37;100110.31;;;17.16;100.00
72438;BME280;60444;43.534;-5.674;2023-03-08T10:31:17;100106.25;;;17.31;100.00
72438;BME280;60444;43.534;-5.674;2023-03-08T10:33:43;100086.91;;;17.23;100.00
72438;BME280;60444;43.534;-5.674;2023-03-08T10:36:19;100092.44;;;17.32;100.00
72438;BME280;60444;43.534;-5.674;2023-03-08T10:38:58;100110.72;;;17.52;100.00
72438;BME280;60444;43.534;-5.674;2023-03-08T10:41:24;100109.56;;;17.55;100.00
72438;BME280;60444;43.534;-5.674;2023-03-08T10:43:53;100109.91;;;17.62;100.00
72438;BME280;60444;43.534;-5.674;2023-03-08T10:46:22;100101.84;;;17.60;100.00
72438;BME280;60444;43.534;-5.674;2023-03-08T10:48:48;100100.81;;;17.61;100.00
72438;BME280;60444;43.534;-5.674;2023-03-08T10:54:03;100104.72;;;17.68;100.00
72438;BME280;60444;43.534;-5.674;2023-03-08T10:56:36;100115.72;;;17.78;100.00
72438;BME280;60444;43.534;-5.674;2023-03-08T10:59:04;100121.50;;;17.84;100.00
72438;BME280;60444;43.534;-5.674;2023-03-08T11:01:47;100128.44;;;17.88;100.00
72438;BME280;60444;43.534;-5.674;2023-03-08T11:04:15;100137.91;;;17.84;100.00
72438;BME280;60444;43.534;-5.674;2023-03-08T11:06:41;100146.47;;;17.91;100.00
72438;BME280;60444;43.534;-5.674;2023-03-08T11:09:27;100143.44;;;17.94;100.00
72438;BME280;60444;43.534;-5.674;2023-03-08T11:12:01;100149.34;;;17.99;99.19
72438;BME280;60444;43.534;-5.674;2023-03-08T11:14:27;100147.94;;;18.04;100.00
72438;BME280;60444;43.534;-5.674;2023-03-08T11:27:40;100101.16;;;17.77;100.00
72438;BME280;60444;43.534;-5.674;2023-03-08T11:31:11;100110.56;;;17.84;100.00
72438;BME280;60444;43.534;-5.674;2023-03-08T11:39:23;100099.09;;;18.00;100.00
72438;BME280;60444;43.534;-5.674;2023-03-08T11:44:32;100090.75;;;18.11;98.40
72438;BME280;60444;43.534;-5.674;2023-03-08T11:57:53;100132.72;;;18.21;100.00
72438;BME280;60444;43.534;-5.674;2023-03-08T12:00:31;100138.13;;;18.02;100.00
72438;BME280;60444;43.534;-5.674;2023-03-08T12:03:02;100133.53;;;18.02;100.00
72438;BME280;60444;43.534;-5.674;2023-03-08T12:05:37;100138.56;;;17.97;100.00
72438;BME280;60444;43.534;-5.674;2023-03-08T12:08:16;100132.78;;;17.91;100.00
72438;BME280;60444;43.534;-5.674;2023-03-08T12:10:45;100137.72;;;18.06;100.00
72438;BME280;60444;43.534;-5.674;2023-03-08T12:13:21;100127.91;;;17.94;100.00
72438;BME280;60444;43.534;-5.674;2023-03-08T12:19:16;100138.00;;;18.03;100.00
72438;BME280;60444;43.534;-5.674;2023-03-08T12:24:42;100116.22;;;18.41;100.00
72438;BME280;60444;43.534;-5.674;2023-03-08T12:29:51;100119.72;;;18.63;99.68
72438;BME280;60444;43.534;-5.674;2023-03-08T12:32:18;100121.47;;;18.73;100.00
72438;BME280;60444;43.534;-5.674;2023-03-08T12:34:46;100118.44;;;18.95;96.26
72438;BME280;60444;43.534;-5.674;2023-03-08T12:37:24;100116.25;;;19.08;96.00
72438;BME280;60444;43.534;-5.674;2023-03-08T12:40:03;100115.25;;;19.19;96.52
72438;BME280;60444;43.534;-5.674;2023-03-08T12:42:40;100105.56;;;19.24;97.64
72438;BME280;60444;43.534;-5.674;2023-03-08T12:48:36;100104.09;;;19.39;96.12
72438;BME280;60444;43.534;-5.674;2023-03-08T12:50:57;100113.31;;;19.48;96.58
72438;BME280;60444;43.534;-5.674;2023-03-08T12:54:15;100100.47;;;19.39;96.53
72438;BME280;60444;43.534;-5.674;2023-03-08T12:56:32;100110.28;;;19.51;96.12
72438;BME280;60444;43.534;-5.674;2023-03-08T12:59:02;100086.00;;;19.56;93.31
72438;BME280;60444;43.534;-5.674;2023-03-08T13:01:42;100084.16;;;19.47;95.70
72438;BME280;60444;43.534;-5.674;2023-03-08T13:09:35;100089.34;;;19.50;95.90
72438;BME280;60444;43.534;-5.674;2023-03-08T13:14:38;100078.97;;;19.44;95.62
72438;BME280;60444;43.534;-5.674;2023-03-08T13:19:57;100067.00;;;19.35;96.01
72438;BME280;60444;43.534;-5.674;2023-03-08T13:25:13;100058.06;;;19.70;92.59
72438;BME280;60444;43.534;-5.674;2023-03-08T13:28:04;100048.31;;;19.85;92.32
72438;BME280;60444;43.534;-5.674;2023-03-08T13:30:51;100045.38;;;19.96;92.62
72438;BME280;60444;43.534;-5.674;2023-03-08T13:35:55;100056.22;;;19.98;93.04
72438;BME280;60444;43.534;-5.674;2023-03-08T13:38:22;100050.56;;;19.99;93.13
72438;BME280;60444;43.534;-5.674;2023-03-08T13:40:53;100065.78;;;20.11;88.76
72438;BME280;60444;43.534;-5.674;2023-03-08T13:43:24;100060.84;;;20.15;92.34
72438;BME280;60444;43.534;-5.674;2023-03-08T13:45:55;100058.41;;;19.94;92.58
72438;BME280;60444;43.534;-5.674;2023-03-08T13:48:21;100073.84;;;19.95;91.58
72438;BME280;60444;43.534;-5.674;2023-03-08T13:50:50;100056.66;;;19.93;89.59
72438;BME280;60444;43.534;-5.674;2023-03-08T13:53:38;100056.75;;;20.01;86.86